createdAt,value
2022-07-31T00:00:36.827Z,16.80
2022-07-31T00:03:06.704Z,16.80
2022-07-31T00:05:41.535Z,16.80
2022-07-31T00:08:09.164Z,16.80
2022-07-31T00:10:35.975Z,16.80
2022-07-31T00:13:02.750Z,16.70
2022-07-31T00:15:29.948Z,16.70
2022-07-31T00:17:57.810Z,16.70
2022-07-31T00:20:24.658Z,16.60
2022-07-31T00:22:54.961Z,16.70
2022-07-31T00:25:21.801Z,16.60
2022-07-31T00:27:48.672Z,16.60
2022-07-31T00:30:17.673Z,16.60
2022-07-31T00:32:45.366Z,16.50
2022-07-31T00:35:14.138Z,16.50
2022-07-31T00:37:41.830Z,16.50
2022-07-31T00:40:15.467Z,16.50
2022-07-31T00:42:42.583Z,16.50
2022-07-31T00:45:13.519Z,16.40
2022-07-31T00:47:40.686Z,16.40
2022-07-31T00:50:10.393Z,16.40
2022-07-31T00:52:37.250Z,16.30
2022-07-31T00:55:04.278Z,16.30
2022-07-31T00:57:31.232Z,16.30
2022-07-31T00:59:58.081Z,16.30
2022-07-31T01:02:25.055Z,16.30
2022-07-31T01:04:51.915Z,16.20
2022-07-31T01:07:18.724Z,16.30
2022-07-31T01:09:49.659Z,16.20
2022-07-31T01:12:53.849Z,16.20
2022-07-31T01:15:22.813Z,16.20
2022-07-31T01:17:53.055Z,16.20
2022-07-31T01:20:20.087Z,16.20
2022-07-31T01:23:32.907Z,16.20
2022-07-31T01:26:09.773Z,16.10
2022-07-31T01:29:10.252Z,16.10
2022-07-31T01:31:43.981Z,16.10
2022-07-31T01:34:22.440Z,16.10
2022-07-31T01:37:14.497Z,16.10
2022-07-31T01:39:46.587Z,16.10
2022-07-31T01:42:18.541Z,16.10
2022-07-31T01:44:54.550Z,16.10
2022-07-31T01:47:23.169Z,16.10
2022-07-31T01:49:55.251Z,16.10
2022-07-31T01:52:25.437Z,16.00
2022-07-31T01:54:54.379Z,16.00
2022-07-31T01:57:23.865Z,16.00
2022-07-31T01:59:56.805Z,16.00
2022-07-31T02:02:25.499Z,15.90
2022-07-31T02:04:53.511Z,15.90
2022-07-31T02:07:22.097Z,15.90
2022-07-31T02:09:52.443Z,15.90
2022-07-31T02:12:33.412Z,15.90
2022-07-31T02:15:09.415Z,15.90
2022-07-31T02:17:37.668Z,15.90
2022-07-31T02:20:09.907Z,15.90
2022-07-31T02:22:37.015Z,15.90
2022-07-31T02:25:05.579Z,15.80
2022-07-31T02:27:57.975Z,15.80
2022-07-31T02:30:21.274Z,15.80
2022-07-31T02:32:49.102Z,15.80
2022-07-31T02:35:17.287Z,15.70
2022-07-31T02:37:44.788Z,15.70
2022-07-31T02:40:14.082Z,15.70
2022-07-31T02:42:41.794Z,15.70
2022-07-31T02:45:12.728Z,15.70
2022-07-31T02:47:39.816Z,15.70
2022-07-31T02:50:08.671Z,15.60
2022-07-31T02:52:35.778Z,15.60
2022-07-31T02:55:04.084Z,15.60
2022-07-31T02:57:31.082Z,15.60
2022-07-31T02:59:57.955Z,15.60
2022-07-31T03:02:24.909Z,15.60
2022-07-31T03:05:04.143Z,15.60
2022-07-31T03:07:31.531Z,15.60
2022-07-31T03:10:00.841Z,15.50
2022-07-31T03:12:30.423Z,15.50
2022-07-31T03:15:01.077Z,15.50
2022-07-31T03:17:40.759Z,15.50
2022-07-31T03:20:09.166Z,15.40
2022-07-31T03:22:36.336Z,15.40
2022-07-31T03:25:04.567Z,15.40
2022-07-31T03:27:31.493Z,15.40
2022-07-31T03:29:58.421Z,15.40
2022-07-31T03:32:25.259Z,15.50
2022-07-31T03:34:52.009Z,15.40
2022-07-31T03:37:19.003Z,15.40
2022-07-31T03:39:45.887Z,15.40
2022-07-31T03:42:18.829Z,15.40
2022-07-31T03:44:46.463Z,15.40
2022-07-31T03:47:13.381Z,15.40
2022-07-31T03:49:43.835Z,15.40
2022-07-31T03:52:12.519Z,15.50
2022-07-31T03:54:40.555Z,15.50
2022-07-31T03:57:08.591Z,15.50
2022-07-31T03:59:38.532Z,15.60
2022-07-31T04:02:08.134Z,15.60
2022-07-31T04:04:40.498Z,15.60
2022-07-31T04:07:07.327Z,15.70
2022-07-31T04:09:34.327Z,15.70
2022-07-31T04:12:03.818Z,15.70
2022-07-31T04:14:30.830Z,15.80
2022-07-31T04:16:57.601Z,15.90
2022-07-31T04:19:26.659Z,15.90
2022-07-31T04:21:53.455Z,16.00
2022-07-31T04:24:21.757Z,16.00
2022-07-31T04:26:49.520Z,16.00
2022-07-31T04:29:16.848Z,16.00
2022-07-31T04:31:43.671Z,16.10
2022-07-31T04:34:10.599Z,16.10
2022-07-31T04:36:38.015Z,16.10
2022-07-31T04:39:07.114Z,16.20
2022-07-31T04:41:34.096Z,16.20
2022-07-31T04:44:00.854Z,16.30
2022-07-31T04:46:27.707Z,16.30
2022-07-31T04:48:54.743Z,16.40
2022-07-31T04:51:23.717Z,16.40
2022-07-31T04:53:51.231Z,16.40
2022-07-31T04:56:37.447Z,16.50
2022-07-31T04:59:09.028Z,16.60
2022-07-31T05:01:36.224Z,16.60
2022-07-31T05:04:03.181Z,16.70
2022-07-31T05:06:38.237Z,16.70
2022-07-31T05:09:13.628Z,16.70
2022-07-31T05:11:45.878Z,16.80
2022-07-31T05:14:17.259Z,16.80
2022-07-31T05:16:45.224Z,16.90
2022-07-31T05:19:14.804Z,16.90
2022-07-31T05:21:48.449Z,17.00
2022-07-31T05:24:32.511Z,17.00
2022-07-31T05:27:04.582Z,17.10
2022-07-31T05:29:32.483Z,17.10
2022-07-31T05:32:09.854Z,17.20
2022-07-31T05:34:41.371Z,17.30
2022-07-31T05:37:08.158Z,17.30
2022-07-31T05:39:39.179Z,17.40
2022-07-31T05:42:06.764Z,17.40
2022-07-31T05:44:35.845Z,17.50
2022-07-31T05:47:02.640Z,17.60
2022-07-31T05:49:32.763Z,17.60
2022-07-31T05:52:02.759Z,17.70
2022-07-31T05:54:29.813Z,17.70
2022-07-31T05:56:59.244Z,17.80
2022-07-31T05:59:25.978Z,17.90
2022-07-31T06:01:53.038Z,17.90
2022-07-31T06:04:22.544Z,18.00
2022-07-31T06:06:51.633Z,18.10
2022-07-31T06:09:18.394Z,18.30
2022-07-31T06:11:45.314Z,18.30
2022-07-31T06:14:16.797Z,18.40
2022-07-31T06:16:43.599Z,18.50
2022-07-31T06:19:10.510Z,18.60
2022-07-31T06:21:42.211Z,18.60
2022-07-31T06:24:09.076Z,18.70
2022-07-31T06:26:38.188Z,18.70
2022-07-31T06:29:08.636Z,18.90
2022-07-31T06:31:37.690Z,18.90
2022-07-31T06:34:04.657Z,18.90
2022-07-31T06:36:31.853Z,18.90
2022-07-31T06:39:00.808Z,19.00
2022-07-31T06:41:47.421Z,19.00
2022-07-31T06:44:20.759Z,19.10
2022-07-31T06:46:48.792Z,19.10
2022-07-31T06:49:19.101Z,19.10
2022-07-31T06:51:46.016Z,19.10
2022-07-31T06:54:15.085Z,19.20
2022-07-31T06:56:41.987Z,19.20
2022-07-31T06:59:11.188Z,19.30
2022-07-31T07:01:38.580Z,19.30
2022-07-31T07:04:05.541Z,19.40
2022-07-31T07:06:32.319Z,19.50
2022-07-31T07:09:01.177Z,19.50
2022-07-31T07:11:30.479Z,19.50
2022-07-31T07:13:57.421Z,19.50
2022-07-31T07:16:24.411Z,19.60
2022-07-31T07:18:51.726Z,19.70
2022-07-31T07:21:18.498Z,19.80
2022-07-31T07:23:45.359Z,19.80
2022-07-31T07:26:12.300Z,19.90
2022-07-31T07:28:39.248Z,20.00
2022-07-31T07:31:08.681Z,20.10
2022-07-31T07:33:39.349Z,20.10
2022-07-31T07:36:07.167Z,20.20
2022-07-31T07:38:33.966Z,20.20
2022-07-31T07:41:02.621Z,20.20
2022-07-31T07:43:31.925Z,20.30
2022-07-31T07:45:59.178Z,20.40
2022-07-31T07:48:29.772Z,20.40
2022-07-31T07:50:56.812Z,20.50
2022-07-31T07:53:23.613Z,20.60
2022-07-31T07:55:55.379Z,20.70
2022-07-31T07:58:22.327Z,20.70
2022-07-31T08:00:49.338Z,20.80
2022-07-31T08:03:50.847Z,20.80
2022-07-31T08:06:03.945Z,20.90
2022-07-31T08:08:33.331Z,20.90
2022-07-31T08:11:01.220Z,21.00
2022-07-31T08:13:28.086Z,21.00
2022-07-31T08:15:55.226Z,21.10
2022-07-31T08:18:27.109Z,21.10
2022-07-31T08:20:55.492Z,21.10
2022-07-31T08:23:24.882Z,21.20
2022-07-31T08:25:51.910Z,21.20
2022-07-31T08:28:19.494Z,21.30
2022-07-31T08:30:50.892Z,21.30
2022-07-31T08:33:17.685Z,21.40
2022-07-31T08:35:50.443Z,21.50
2022-07-31T08:38:18.789Z,21.60
2022-07-31T08:40:46.531Z,21.50
2022-07-31T08:44:01.497Z,21.70
2022-07-31T08:46:04.352Z,21.70
2022-07-31T08:48:33.256Z,21.80
2022-07-31T08:51:03.685Z,21.80
2022-07-31T08:53:33.131Z,21.90
2022-07-31T08:56:00.414Z,21.90
2022-07-31T08:58:29.847Z,21.90
2022-07-31T09:00:59.613Z,21.90
2022-07-31T09:03:26.516Z,22.00
2022-07-31T09:05:53.384Z,22.10
2022-07-31T09:08:23.841Z,22.10
2022-07-31T09:11:07.674Z,22.10
2022-07-31T09:13:37.673Z,22.10
2022-07-31T09:16:05.588Z,22.20
2022-07-31T09:18:32.503Z,22.30
2022-07-31T09:21:09.408Z,22.40
2022-07-31T09:23:48.865Z,22.50
2022-07-31T09:26:16.577Z,22.60
2022-07-31T09:28:53.254Z,22.70
2022-07-31T09:31:22.904Z,22.80
2022-07-31T09:33:49.702Z,22.80
2022-07-31T09:36:23.937Z,22.80
2022-07-31T09:38:53.612Z,23.00
2022-07-31T09:41:55.607Z,23.00
2022-07-31T09:44:11.466Z,23.00
2022-07-31T09:46:46.629Z,23.10
2022-07-31T09:49:14.089Z,23.20
2022-07-31T09:51:46.071Z,23.30
2022-07-31T09:54:27.303Z,23.30
2022-07-31T09:56:56.669Z,23.40
2022-07-31T09:59:26.703Z,23.50
2022-07-31T10:01:55.284Z,23.50
2022-07-31T10:04:27.175Z,23.60
2022-07-31T10:06:56.279Z,23.70
2022-07-31T10:09:26.733Z,23.70
2022-07-31T10:11:55.355Z,23.90
2022-07-31T10:14:28.533Z,24.00
2022-07-31T10:16:59.036Z,24.10
2022-07-31T10:19:31.808Z,24.20
2022-07-31T10:22:04.120Z,24.50
2022-07-31T10:24:36.094Z,24.50
2022-07-31T10:27:09.120Z,24.50
2022-07-31T10:29:40.163Z,24.60
2022-07-31T10:32:08.945Z,24.70
2022-07-31T10:34:36.528Z,24.80
2022-07-31T10:37:21.212Z,24.80
2022-07-31T10:40:02.147Z,24.90
2022-07-31T10:43:03.358Z,25.00
2022-07-31T10:45:31.789Z,25.20
2022-07-31T10:48:03.839Z,25.30
2022-07-31T10:50:30.797Z,25.30
2022-07-31T10:53:13.194Z,25.30
2022-07-31T10:55:40.132Z,25.30
2022-07-31T10:58:16.256Z,25.40
2022-07-31T11:00:43.977Z,25.50
2022-07-31T11:03:22.295Z,25.70
2022-07-31T11:06:00.993Z,25.80
2022-07-31T11:08:44.911Z,25.80
2022-07-31T11:11:12.966Z,26.00
2022-07-31T11:13:51.434Z,26.20
2022-07-31T11:16:19.858Z,26.20
2022-07-31T11:19:02.367Z,26.40
2022-07-31T11:21:40.371Z,26.80
2022-07-31T11:24:23.363Z,27.30
2022-07-31T11:26:55.306Z,27.40
2022-07-31T11:30:00.452Z,27.30
2022-07-31T11:32:16.640Z,27.50
2022-07-31T11:34:49.656Z,27.70
2022-07-31T11:37:58.037Z,27.60
2022-07-31T11:40:27.559Z,27.60
2022-07-31T11:43:24.401Z,28.00
2022-07-31T11:45:53.226Z,28.20
2022-07-31T11:48:27.555Z,28.80
2022-07-31T11:50:57.482Z,28.60
2022-07-31T11:53:27.734Z,28.60
2022-07-31T11:56:01.138Z,28.40
2022-07-31T11:58:29.785Z,28.40
2022-07-31T12:01:02.245Z,28.50
2022-07-31T12:03:31.658Z,28.40
2022-07-31T12:05:59.102Z,28.40
2022-07-31T12:08:27.050Z,28.60
2022-07-31T12:10:54.995Z,28.50
2022-07-31T12:13:23.556Z,29.00
2022-07-31T12:16:13.252Z,28.70
2022-07-31T12:18:59.393Z,28.80
2022-07-31T12:21:35.901Z,28.60
2022-07-31T12:24:13.425Z,28.90
2022-07-31T12:26:48.971Z,28.70
2022-07-31T12:29:15.761Z,28.50
2022-07-31T12:31:48.485Z,28.10
2022-07-31T12:34:41.945Z,27.90
2022-07-31T12:37:10.769Z,27.70
2022-07-31T12:39:59.371Z,27.60
2022-07-31T12:42:41.627Z,27.60
2022-07-31T12:45:19.299Z,27.70
2022-07-31T12:47:53.902Z,27.90
2022-07-31T12:50:21.773Z,28.20
2022-07-31T12:52:48.740Z,28.70
2022-07-31T12:55:18.306Z,30.60
2022-07-31T12:57:51.237Z,34.50
2022-07-31T13:00:23.899Z,33.70
2022-07-31T13:02:55.008Z,32.00
2022-07-31T13:05:23.131Z,31.00
2022-07-31T13:07:50.438Z,30.90
2022-07-31T13:10:21.205Z,33.80
2022-07-31T13:12:51.623Z,37.00
2022-07-31T13:15:23.403Z,45.10
2022-07-31T13:17:51.196Z,48.40
2022-07-31T13:20:21.142Z,52.80
2022-07-31T13:22:48.120Z,52.80
2022-07-31T13:25:15.111Z,53.70
2022-07-31T13:27:42.005Z,55.40
2022-07-31T13:30:11.351Z,57.50
2022-07-31T13:32:38.140Z,58.50
2022-07-31T13:35:26.678Z,54.50
2022-07-31T13:37:56.452Z,54.20
2022-07-31T13:40:41.780Z,55.90
2022-07-31T13:43:11.236Z,56.90
2022-07-31T13:45:40.664Z,56.10
2022-07-31T13:48:09.763Z,54.90
2022-07-31T13:50:39.828Z,50.40
2022-07-31T13:53:07.123Z,46.10
2022-07-31T13:55:33.955Z,46.80
2022-07-31T13:58:01.702Z,48.20
2022-07-31T14:00:29.981Z,49.00
2022-07-31T14:02:57.867Z,52.60
2022-07-31T14:05:27.824Z,51.10
2022-07-31T14:07:55.671Z,52.70
2022-07-31T14:10:23.510Z,52.70
2022-07-31T14:12:50.643Z,53.00
2022-07-31T14:15:19.776Z,54.00
2022-07-31T14:17:48.817Z,53.50
2022-07-31T14:20:18.593Z,53.10
2022-07-31T14:22:45.528Z,54.60
2022-07-31T14:25:14.674Z,53.10
2022-07-31T14:27:45.848Z,53.40
2022-07-31T14:30:20.033Z,54.10
2022-07-31T14:32:47.907Z,53.60
2022-07-31T14:35:14.990Z,53.00
2022-07-31T14:37:44.184Z,49.10
2022-07-31T14:40:11.841Z,48.90
2022-07-31T14:42:39.258Z,45.50
2022-07-31T14:45:07.216Z,41.10
2022-07-31T14:47:35.238Z,41.90
2022-07-31T14:50:07.378Z,40.30
2022-07-31T14:52:37.108Z,38.80
2022-07-31T14:55:06.380Z,38.10
2022-07-31T14:57:33.331Z,36.90
2022-07-31T15:00:00.321Z,35.30
2022-07-31T15:02:28.934Z,34.90
2022-07-31T15:04:57.382Z,38.80
2022-07-31T15:07:46.861Z,38.20
2022-07-31T15:10:14.723Z,37.50
2022-07-31T15:12:41.853Z,36.20
2022-07-31T15:15:11.404Z,35.30
2022-07-31T15:17:38.291Z,34.30
2022-07-31T15:20:05.594Z,34.40
2022-07-31T15:22:32.477Z,35.90
2022-07-31T15:24:59.653Z,35.30
2022-07-31T15:27:26.528Z,34.10
2022-07-31T15:30:04.759Z,33.90
2022-07-31T15:32:39.208Z,33.40
2022-07-31T15:35:11.386Z,33.30
2022-07-31T15:37:43.998Z,32.80
2022-07-31T15:40:14.040Z,32.50
2022-07-31T15:42:44.991Z,31.20
2022-07-31T15:45:19.345Z,30.90
2022-07-31T15:47:46.902Z,30.70
2022-07-31T15:50:20.293Z,30.50
2022-07-31T15:52:49.452Z,30.60
2022-07-31T15:55:17.371Z,30.80
2022-07-31T15:57:47.025Z,30.80
2022-07-31T16:00:14.671Z,30.50
2022-07-31T16:02:42.779Z,30.00
2022-07-31T16:05:12.005Z,29.70
2022-07-31T16:08:28.943Z,29.70
2022-07-31T16:10:38.345Z,29.40
2022-07-31T16:13:05.357Z,29.40
2022-07-31T16:15:34.801Z,29.40
2022-07-31T16:18:02.375Z,29.40
2022-07-31T16:20:29.261Z,29.00
2022-07-31T16:23:02.049Z,28.80
2022-07-31T16:25:32.157Z,28.70
2022-07-31T16:28:02.366Z,28.50
2022-07-31T16:30:29.337Z,28.50
2022-07-31T16:32:56.236Z,28.80
2022-07-31T16:35:26.394Z,28.80
2022-07-31T16:37:54.367Z,28.80
2022-07-31T16:40:30.629Z,28.80
2022-07-31T16:43:48.585Z,28.60
2022-07-31T16:45:53.565Z,28.70
2022-07-31T16:48:23.174Z,28.60
2022-07-31T16:50:54.296Z,28.70
2022-07-31T16:54:10.458Z,28.60
2022-07-31T16:56:16.093Z,28.60
2022-07-31T16:58:44.159Z,28.60
2022-07-31T17:01:57.000Z,28.70
2022-07-31T17:04:04.619Z,28.60
2022-07-31T17:06:36.092Z,28.70
2022-07-31T17:09:15.801Z,28.80
2022-07-31T17:11:47.406Z,28.90
2022-07-31T17:14:17.514Z,28.70
2022-07-31T17:16:48.067Z,28.70
2022-07-31T17:19:42.761Z,28.50
2022-07-31T17:22:10.925Z,28.20
2022-07-31T17:24:38.366Z,28.00
2022-07-31T17:27:07.670Z,27.80
2022-07-31T17:29:38.301Z,27.60
2022-07-31T17:32:06.599Z,27.40
2022-07-31T17:34:35.265Z,27.40
2022-07-31T17:37:05.126Z,27.20
2022-07-31T17:39:32.651Z,27.10
2022-07-31T17:42:02.061Z,27.00
2022-07-31T17:44:32.841Z,27.00
2022-07-31T17:46:59.835Z,26.90
2022-07-31T17:49:30.711Z,26.90
2022-07-31T17:51:59.748Z,26.80
2022-07-31T17:54:35.584Z,26.70
2022-07-31T17:57:02.952Z,26.60
2022-07-31T17:59:34.844Z,26.50
2022-07-31T18:02:04.046Z,26.50
2022-07-31T18:04:39.281Z,26.40
2022-07-31T18:07:07.778Z,26.30
2022-07-31T18:09:36.576Z,26.20
2022-07-31T18:12:07.010Z,26.10
2022-07-31T18:14:38.278Z,26.10
2022-07-31T18:17:05.473Z,26.10
2022-07-31T18:19:40.200Z,26.00
2022-07-31T18:22:07.940Z,26.00
2022-07-31T18:24:34.950Z,25.90
2022-07-31T18:27:02.009Z,25.80
2022-07-31T18:29:31.638Z,25.80
2022-07-31T18:31:58.586Z,25.70
2022-07-31T18:34:25.601Z,25.70
2022-07-31T18:36:54.943Z,25.60
2022-07-31T18:39:25.746Z,25.60
2022-07-31T18:41:52.844Z,25.60
2022-07-31T18:44:22.445Z,25.50
2022-07-31T18:46:49.894Z,25.50
2022-07-31T18:51:00.224Z,25.50
2022-07-31T18:52:07.829Z,25.40
2022-07-31T18:54:35.350Z,25.40
2022-07-31T18:57:04.168Z,25.30
2022-07-31T18:59:31.544Z,25.30
2022-07-31T19:02:00.815Z,25.20
2022-07-31T19:04:27.909Z,25.20
2022-07-31T19:06:54.817Z,25.10
2022-07-31T19:09:27.570Z,25.00
2022-07-31T19:11:58.586Z,25.00
2022-07-31T19:14:26.309Z,24.90
2022-07-31T19:16:59.933Z,24.90
2022-07-31T19:19:31.745Z,24.90
2022-07-31T19:22:15.338Z,24.80
2022-07-31T19:24:42.345Z,24.80
2022-07-31T19:27:09.307Z,24.70
2022-07-31T19:29:38.780Z,24.70
2022-07-31T19:32:08.529Z,24.80
2022-07-31T19:34:35.600Z,24.70
2022-07-31T19:37:05.716Z,24.70
2022-07-31T19:39:36.591Z,24.70
2022-07-31T19:42:11.016Z,24.60
2022-07-31T19:44:44.307Z,24.50
2022-07-31T19:47:11.099Z,24.40
2022-07-31T19:49:38.537Z,24.30
2022-07-31T19:52:08.523Z,24.30
2022-07-31T19:54:36.771Z,24.20
2022-07-31T19:57:03.739Z,24.10
2022-07-31T19:59:33.222Z,24.10
2022-07-31T20:02:00.274Z,24.00
2022-07-31T20:04:29.342Z,24.00
2022-07-31T20:06:57.789Z,23.90
2022-07-31T20:09:26.813Z,23.90
2022-07-31T20:11:56.522Z,23.90
2022-07-31T20:14:23.980Z,23.90
2022-07-31T20:16:50.854Z,23.90
2022-07-31T20:19:17.632Z,23.80
2022-07-31T20:21:44.980Z,23.80
2022-07-31T20:24:17.744Z,23.70
2022-07-31T20:26:48.549Z,23.70
2022-07-31T20:29:17.821Z,23.60
2022-07-31T20:31:44.606Z,23.60
2022-07-31T20:34:14.457Z,23.60
2022-07-31T20:36:41.621Z,23.50
2022-07-31T20:39:08.681Z,23.50
2022-07-31T20:41:38.303Z,23.50
2022-07-31T20:44:05.378Z,23.40
2022-07-31T20:46:34.259Z,23.40
2022-07-31T20:49:05.515Z,23.30
2022-07-31T20:51:32.735Z,23.40
2022-07-31T20:53:59.547Z,23.30
2022-07-31T20:56:28.694Z,23.30
2022-07-31T20:58:57.945Z,23.30
2022-07-31T21:01:28.098Z,23.30
2022-07-31T21:03:55.525Z,23.30
2022-07-31T21:06:23.337Z,23.20
2022-07-31T21:08:55.536Z,23.20
2022-07-31T21:11:31.596Z,23.20
2022-07-31T21:14:02.900Z,23.20
2022-07-31T21:16:29.913Z,23.10
2022-07-31T21:19:05.301Z,23.20
2022-07-31T21:21:34.384Z,23.10
2022-07-31T21:24:01.497Z,23.10
2022-07-31T21:26:32.803Z,23.10
2022-07-31T21:29:04.273Z,23.10
2022-07-31T21:31:33.993Z,23.00
2022-07-31T21:34:01.115Z,23.00
2022-07-31T21:36:28.887Z,22.90
2022-07-31T21:38:57.302Z,22.90
2022-07-31T21:41:24.593Z,22.80
2022-07-31T21:43:58.717Z,22.80
2022-07-31T21:46:32.988Z,22.80
2022-07-31T21:49:03.440Z,22.70
2022-07-31T21:51:33.704Z,22.70
2022-07-31T21:54:00.532Z,22.70
2022-07-31T21:56:30.634Z,22.60
2022-07-31T21:59:00.224Z,22.60
2022-07-31T22:01:29.352Z,22.60
2022-07-31T22:03:56.218Z,22.50
2022-07-31T22:06:42.207Z,22.50
2022-07-31T22:09:09.757Z,22.50
2022-07-31T22:11:36.611Z,22.40
2022-07-31T22:14:05.736Z,22.50
2022-07-31T22:16:32.674Z,22.40
2022-07-31T22:18:59.722Z,22.40
2022-07-31T22:21:26.906Z,22.50
2022-07-31T22:23:54.002Z,22.50
2022-07-31T22:26:21.237Z,22.40
2022-07-31T22:28:48.414Z,22.50
2022-07-31T22:31:15.545Z,22.60
2022-07-31T22:33:43.227Z,22.70
2022-07-31T22:36:13.227Z,22.90
2022-07-31T22:38:44.343Z,23.10
2022-07-31T22:41:14.948Z,23.20
2022-07-31T22:44:12.994Z,23.20
2022-07-31T22:46:32.986Z,23.20
2022-07-31T22:49:01.207Z,23.10
2022-07-31T22:51:30.729Z,23.10
2022-07-31T22:53:59.827Z,22.90
2022-07-31T22:56:26.638Z,22.80
2022-07-31T22:58:55.642Z,22.70
2022-07-31T23:01:22.556Z,22.60
2022-07-31T23:03:49.390Z,22.50
2022-07-31T23:06:30.798Z,22.40
2022-07-31T23:09:02.280Z,22.30
2022-07-31T23:11:31.490Z,22.20
2022-07-31T23:14:01.044Z,22.20
2022-07-31T23:16:31.597Z,22.10
2022-07-31T23:19:01.752Z,22.00
2022-07-31T23:21:30.692Z,21.90
2022-07-31T23:23:57.740Z,21.90
2022-07-31T23:26:25.720Z,21.90
2022-07-31T23:28:54.600Z,21.80
2022-07-31T23:31:22.834Z,21.70
2022-07-31T23:33:50.306Z,21.70
2022-07-31T23:36:17.637Z,21.60
2022-07-31T23:38:45.167Z,21.50
2022-07-31T23:41:12.586Z,21.50
2022-07-31T23:43:39.742Z,21.40
2022-07-31T23:46:26.965Z,21.40
2022-07-31T23:49:04.201Z,21.40
2022-07-31T23:51:32.302Z,21.40
2022-07-31T23:54:05.447Z,21.30
2022-07-31T23:56:33.052Z,21.30
2022-07-31T23:58:59.854Z,21.30
